Time,TemperatureC,DewpointC,PressurehPa,WindDirection,WindDirectionDegrees,WindSpeedKMH,WindSpeedGustKMH,Humidity,HourlyPrecipMM,Conditions,Clouds,dailyrainMM,SolarRadiationWatts/m^2,UVIndex,SoftwareType,DateUTC
2026-09-07 00:04:59,7,6.1,1007.7,WNW,283,0,0,94,0.0,,,0.0,0,0,n/a,2026-09-06T12:04:59Z
2026-09-07 00:09:56,7,6.1,1007.7,WNW,283,0,0,94,0.0,,,0.0,0,0,n/a,2026-09-06T12:09:56Z
2026-09-07 00:14:56,6.9,6.1,1007.6,WNW,283,0,0,94,0.0,,,0.0,0,0,n/a,2026-09-06T12:14:56Z
2026-09-07 00:19:57,6.9,6.1,1007.6,WNW,283,0,0,94,0.0,,,0.0,0,0,n/a,2026-09-06T12:19:57Z
2026-09-07 00:24:54,6.9,6,1007.5,WNW,283,0,0,94,0.0,,,0.0,0,0,n/a,2026-09-06T12:24:54Z
2026-09-07 00:29:58,6.9,6,1007.5,WNW,283,0,0,94,0.0,,,0.0,0,0,n/a,2026-09-06T12:29:58Z
2026-09-07 00:34:55,6.9,6,1007.5,WNW,283,0,0,94,0.0,,,0.0,0,0,n/a,2026-09-06T12:34:55Z
2026-09-07 00:39:57,6.9,6,1007.6,WNW,283,0,0,94,0.0,,,0.0,0,0,n/a,2026-09-06T12:39:57Z
2026-09-07 00:44:55,6.8,5.9,1007.6,WNW,283,0,0,94,0.0,,,0.0,0,0,n/a,2026-09-06T12:44:55Z
2026-09-07 00:49:59,6.8,5.9,1007.6,WNW,283,0,0,94,0.0,,,0.0,0,0,n/a,2026-09-06T12:49:59Z
2026-09-07 00:54:58,6.8,5.9,1007.8,WNW,283,0,0,94,0.2,,,0.2,0,0,n/a,2026-09-06T12:54:58Z
2026-09-07 00:59:56,6.8,5.9,1007.9,WNW,283,0,0,94,0.2,,,0.2,0,0,n/a,2026-09-06T12:59:56Z
2026-09-07 01:04:59,6.8,5.9,1007.9,WNW,283,0,0,94,0.2,,,0.2,0,0,n/a,2026-09-06T13:04:59Z
2026-09-07 01:09:55,6.8,5.9,1008.0,WNW,283,0,0,94,0.2,,,0.2,0,0,n/a,2026-09-06T13:09:55Z
2026-09-07 01:14:54,6.8,5.9,1008.0,WNW,283,0,0,94,0.2,,,0.2,0,0,n/a,2026-09-06T13:14:54Z
2026-09-07 01:19:59,6.8,5.9,1008.1,WNW,283,0,0,94,0.2,,,0.2,0,0,n/a,2026-09-06T13:19:59Z
2026-09-07 01:24:53,6.8,5.9,1008.1,WNW,283,0,0,94,0.2,,,0.2,0,0,n/a,2026-09-06T13:24:53Z
2026-09-07 01:29:57,6.8,5.9,1008.1,WNW,283,0,0,94,0.2,,,0.2,0,0,n/a,2026-09-06T13:29:57Z
2026-09-07 01:34:57,6.8,5.9,1008.2,WNW,283,0,0,94,0.2,,,0.2,0,0,n/a,2026-09-06T13:34:57Z
2026-09-07 01:39:59,6.8,5.9,1008.2,WNW,283,0,0,94,0.2,,,0.2,0,0,n/a,2026-09-06T13:39:59Z
2026-09-07 01:44:58,6.8,5.9,1008.4,WNW,283,0,0,94,0.2,,,0.2,0,0,n/a,2026-09-06T13:44:58Z
2026-09-07 01:49:57,6.8,5.9,1008.3,WNW,283,0,0,94,0.2,,,0.2,0,0,n/a,2026-09-06T13:49:57Z
2026-09-07 01:54:56,6.8,5.9,1008.2,WNW,283,0,0,94,0.2,,,0.2,0,0,n/a,2026-09-06T13:54:56Z
2026-09-07 01:59:54,6.8,5.9,1008.2,WNW,283,0,0,94,0.0,,,0.2,0,0,n/a,2026-09-06T13:59:54Z
2026-09-07 02:04:59,6.8,5.9,1008.2,WNW,283,0,0,94,0.0,,,0.2,0,0,n/a,2026-09-06T14:04:59Z
2026-09-07 02:09:58,6.8,5.9,1008.1,WNW,283,0,0,94,0.0,,,0.2,0,0,n/a,2026-09-06T14:09:58Z
2026-09-07 02:14:58,6.8,5.9,1008.2,WNW,283,0,0,94,0.0,,,0.2,0,0,n/a,2026-09-06T14:14:58Z